createdAt,value
2022-10-26T00:00:06.370Z,26.36
2022-10-26T00:00:36.482Z,26.36
2022-10-26T00:01:06.570Z,26.33
2022-10-26T00:01:36.717Z,26.36
2022-10-26T00:02:06.756Z,26.33
2022-10-26T00:02:36.696Z,26.34
2022-10-26T00:03:06.698Z,26.34
2022-10-26T00:03:36.818Z,26.37
2022-10-26T00:04:06.928Z,26.34
2022-10-26T00:04:37.001Z,26.34
2022-10-26T00:05:07.077Z,26.33
2022-10-26T00:05:37.153Z,26.36
2022-10-26T00:06:07.230Z,26.33
2022-10-26T00:06:37.305Z,26.34
2022-10-26T00:07:07.378Z,26.34
2022-10-26T00:07:37.519Z,26.33
2022-10-26T00:08:07.477Z,26.36
2022-10-26T00:08:37.553Z,26.34
2022-10-26T00:09:07.626Z,26.37
2022-10-26T00:09:37.696Z,26.36
2022-10-26T00:10:07.771Z,26.36
2022-10-26T00:10:37.842Z,26.33
2022-10-26T00:11:07.917Z,26.36
2022-10-26T00:11:37.998Z,26.34
2022-10-26T00:12:08.072Z,26.34
2022-10-26T00:12:38.150Z,26.37
2022-10-26T00:13:08.218Z,26.34
2022-10-26T00:13:38.294Z,26.34
2022-10-26T00:14:08.382Z,26.33
2022-10-26T00:14:38.486Z,26.33
2022-10-26T00:15:08.600Z,26.33
2022-10-26T00:15:38.713Z,26.34
2022-10-26T00:16:08.827Z,26.36
2022-10-26T00:16:38.965Z,26.33
2022-10-26T00:17:09.051Z,26.33
2022-10-26T00:17:39.168Z,26.33
2022-10-26T00:18:09.280Z,26.34
2022-10-26T00:18:39.390Z,26.34
2022-10-26T00:19:09.509Z,26.33
2022-10-26T00:19:39.625Z,26.34
2022-10-26T00:20:09.734Z,26.33
2022-10-26T00:20:39.844Z,26.32
2022-10-26T00:21:09.960Z,26.36
2022-10-26T00:21:40.079Z,26.34
2022-10-26T00:22:10.191Z,26.33
2022-10-26T00:22:40.304Z,26.34
2022-10-26T00:23:10.425Z,26.33
2022-10-26T00:23:40.414Z,26.34
2022-10-26T00:24:10.556Z,26.34
2022-10-26T00:24:40.646Z,26.34
2022-10-26T00:25:10.763Z,26.34
2022-10-26T00:25:40.871Z,26.34
2022-10-26T00:26:10.981Z,26.33
2022-10-26T00:26:41.095Z,26.33
2022-10-26T00:27:11.208Z,26.34
2022-10-26T00:27:41.324Z,26.32
2022-10-26T00:28:11.437Z,26.32
2022-10-26T00:28:41.553Z,26.34
2022-10-26T00:29:11.665Z,26.34
2022-10-26T00:29:41.780Z,26.34
2022-10-26T00:30:11.894Z,26.34
2022-10-26T00:30:42.005Z,26.33
2022-10-26T00:31:12.122Z,26.34
2022-10-26T00:31:42.264Z,26.33
2022-10-26T00:32:12.348Z,26.36
2022-10-26T00:32:42.463Z,26.36
2022-10-26T00:33:12.577Z,26.34
2022-10-26T00:33:42.686Z,26.36
2022-10-26T00:34:12.805Z,26.34
2022-10-26T00:34:42.919Z,26.36
2022-10-26T00:35:24.088Z,26.34
2022-10-26T00:35:45.853Z,26.33
2022-10-26T00:36:13.120Z,26.33
2022-10-26T00:36:43.238Z,26.34
2022-10-26T00:37:13.350Z,26.36
2022-10-26T00:37:43.457Z,26.33
2022-10-26T00:38:13.575Z,26.33
2022-10-26T00:38:43.689Z,26.34
2022-10-26T00:39:13.794Z,26.32
2022-10-26T00:39:43.911Z,26.34
2022-10-26T00:40:14.018Z,26.33
2022-10-26T00:40:44.171Z,26.33
2022-10-26T00:41:14.181Z,26.33
2022-10-26T00:41:44.288Z,26.34
2022-10-26T00:42:14.419Z,26.33
2022-10-26T00:42:44.411Z,26.36
2022-10-26T00:43:14.523Z,26.34
2022-10-26T00:43:44.568Z,26.33
2022-10-26T00:44:14.677Z,26.36
2022-10-26T00:44:44.788Z,26.34
2022-10-26T00:45:14.908Z,26.36
2022-10-26T00:45:45.018Z,26.33
2022-10-26T00:46:15.130Z,26.36
2022-10-26T00:46:45.278Z,26.33
2022-10-26T00:47:15.362Z,26.36
2022-10-26T00:47:45.478Z,26.32
2022-10-26T00:48:15.591Z,26.32
2022-10-26T00:48:45.700Z,26.33
2022-10-26T00:49:15.860Z,26.33
2022-10-26T00:49:45.831Z,26.33
2022-10-26T00:50:15.942Z,26.33
2022-10-26T00:50:46.052Z,26.34
2022-10-26T00:51:16.160Z,26.34
2022-10-26T00:51:46.166Z,26.33
2022-10-26T00:52:16.273Z,26.33
2022-10-26T00:52:46.796Z,26.34
2022-10-26T00:53:16.374Z,26.34
2022-10-26T00:53:46.484Z,26.34
2022-10-26T00:54:16.595Z,26.33
2022-10-26T00:54:46.710Z,26.32
2022-10-26T00:55:16.821Z,26.32
2022-10-26T00:55:46.934Z,26.32
2022-10-26T00:56:17.047Z,26.33
2022-10-26T00:56:47.164Z,26.34
2022-10-26T00:57:17.277Z,26.32
2022-10-26T00:57:47.387Z,26.33
2022-10-26T00:58:17.498Z,26.33
2022-10-26T00:58:47.610Z,26.33
2022-10-26T00:59:17.722Z,26.33
2022-10-26T00:59:47.711Z,26.34
2022-10-26T01:00:17.825Z,26.33
2022-10-26T01:00:47.818Z,26.34
2022-10-26T01:01:17.979Z,26.33
2022-10-26T01:01:48.054Z,26.32
2022-10-26T01:02:18.031Z,26.33
2022-10-26T01:02:48.540Z,26.33
2022-10-26T01:03:18.346Z,26.32
2022-10-26T01:03:48.402Z,26.30
2022-10-26T01:04:18.386Z,26.33
2022-10-26T01:04:48.488Z,26.34
2022-10-26T01:05:18.457Z,26.34
2022-10-26T01:05:48.529Z,26.33
2022-10-26T01:06:18.646Z,26.33
2022-10-26T01:06:48.787Z,26.32
2022-10-26T01:07:18.808Z,26.33
2022-10-26T01:07:49.133Z,26.32
2022-10-26T01:08:18.820Z,26.33
2022-10-26T01:08:48.894Z,26.32
2022-10-26T01:09:18.971Z,26.34
2022-10-26T01:09:49.042Z,26.32
2022-10-26T01:10:19.123Z,26.34
2022-10-26T01:10:49.193Z,26.33
2022-10-26T01:11:19.274Z,26.33
2022-10-26T01:11:49.351Z,26.33
2022-10-26T01:12:19.423Z,26.32
2022-10-26T01:12:49.492Z,26.30
2022-10-26T01:13:19.571Z,26.32
2022-10-26T01:13:49.639Z,26.33
2022-10-26T01:14:19.741Z,26.33
2022-10-26T01:14:49.853Z,26.33
2022-10-26T01:15:19.964Z,26.33
2022-10-26T01:15:50.074Z,26.32
2022-10-26T01:16:20.199Z,26.34
2022-10-26T01:16:50.264Z,26.32
2022-10-26T01:17:20.266Z,26.32
2022-10-26T01:17:50.660Z,26.34
2022-10-26T01:18:20.423Z,26.33
2022-10-26T01:18:50.533Z,26.32
2022-10-26T01:19:20.651Z,26.32
2022-10-26T01:19:50.645Z,26.30
2022-10-26T01:20:20.757Z,26.30
2022-10-26T01:20:50.867Z,26.32
2022-10-26T01:21:20.990Z,26.32
2022-10-26T01:21:51.095Z,26.34
2022-10-26T01:22:21.221Z,26.32
2022-10-26T01:22:51.209Z,26.33
2022-10-26T01:23:21.320Z,26.32
2022-10-26T01:23:51.431Z,26.33
2022-10-26T01:24:21.539Z,26.32
2022-10-26T01:24:51.653Z,26.32
2022-10-26T01:25:21.765Z,26.32
2022-10-26T01:25:51.869Z,26.32
2022-10-26T01:26:21.982Z,26.30
2022-10-26T01:27:22.191Z,26.32
2022-10-26T01:27:52.438Z,26.33
2022-10-26T01:28:22.180Z,26.32
2022-10-26T01:28:52.286Z,26.33
2022-10-26T01:29:22.400Z,26.32
2022-10-26T01:29:52.506Z,26.32
2022-10-26T01:30:22.618Z,26.29
2022-10-26T01:30:52.737Z,26.33
2022-10-26T01:31:22.855Z,26.33
2022-10-26T01:31:52.967Z,26.30
2022-10-26T01:32:23.112Z,26.30
2022-10-26T01:32:53.196Z,26.33
2022-10-26T01:33:23.306Z,26.30
2022-10-26T01:33:53.416Z,26.30
2022-10-26T01:34:23.526Z,26.30
2022-10-26T01:34:53.636Z,26.33
2022-10-26T01:35:23.746Z,26.32
2022-10-26T01:35:53.865Z,26.33
2022-10-26T01:36:24.034Z,26.30
2022-10-26T01:36:54.004Z,26.34
2022-10-26T01:37:24.126Z,26.32
2022-10-26T01:37:54.230Z,26.32
2022-10-26T01:38:24.343Z,26.32
2022-10-26T01:38:54.453Z,26.32
2022-10-26T01:39:24.565Z,26.33
2022-10-26T01:39:54.670Z,26.30
2022-10-26T01:40:24.782Z,26.32
2022-10-26T01:40:54.891Z,26.32
2022-10-26T01:41:25.011Z,26.32
2022-10-26T01:41:54.999Z,26.32
2022-10-26T01:42:25.108Z,26.33
2022-10-26T01:42:55.223Z,26.32
2022-10-26T01:43:25.330Z,26.29
2022-10-26T01:43:55.443Z,26.29
2022-10-26T01:44:25.557Z,26.32
2022-10-26T01:44:55.667Z,26.33
2022-10-26T01:45:25.782Z,26.29
2022-10-26T01:45:55.896Z,26.32
2022-10-26T01:46:26.019Z,26.32
2022-10-26T01:46:56.008Z,26.32
2022-10-26T01:47:26.139Z,26.30
2022-10-26T01:47:56.229Z,26.33
2022-10-26T01:48:26.242Z,26.32
2022-10-26T01:48:56.346Z,26.32
2022-10-26T01:49:26.457Z,26.30
2022-10-26T01:49:56.569Z,26.30
2022-10-26T01:50:26.683Z,26.32
2022-10-26T01:50:56.814Z,26.33
2022-10-26T01:51:26.795Z,26.30
2022-10-26T01:51:56.915Z,26.30
2022-10-26T01:52:27.022Z,26.32
2022-10-26T01:52:57.131Z,26.29
2022-10-26T01:53:27.245Z,26.32
2022-10-26T01:53:57.357Z,26.32
2022-10-26T01:54:27.563Z,26.32
2022-10-26T01:54:57.576Z,26.30
2022-10-26T01:55:27.688Z,26.30
2022-10-26T01:55:57.812Z,26.32
2022-10-26T01:56:27.810Z,26.30
2022-10-26T01:56:57.917Z,26.30
2022-10-26T01:57:28.040Z,26.32
2022-10-26T01:57:58.148Z,26.30
2022-10-26T01:58:28.256Z,26.33
2022-10-26T01:58:58.370Z,26.29
2022-10-26T01:59:28.479Z,26.30
2022-10-26T01:59:58.592Z,26.32
2022-10-26T02:00:28.706Z,26.30
2022-10-26T02:00:58.833Z,26.30
2022-10-26T02:01:28.917Z,26.32
2022-10-26T02:01:58.906Z,26.32
2022-10-26T02:02:29.033Z,26.30
2022-10-26T02:02:59.126Z,26.29
2022-10-26T02:03:29.269Z,26.32
2022-10-26T02:03:59.278Z,26.32
2022-10-26T02:04:29.247Z,26.29
2022-10-26T02:04:59.317Z,26.30
2022-10-26T02:05:29.393Z,26.30
2022-10-26T02:05:59.483Z,26.32
2022-10-26T02:06:29.607Z,26.30
2022-10-26T02:06:59.556Z,26.33
2022-10-26T02:07:29.632Z,26.27
2022-10-26T02:07:59.704Z,26.32
2022-10-26T02:08:29.805Z,26.32
2022-10-26T02:08:59.870Z,26.30
2022-10-26T02:09:29.949Z,26.32
2022-10-26T02:10:00.029Z,26.32
2022-10-26T02:10:30.127Z,26.32
2022-10-26T02:11:00.220Z,26.30
2022-10-26T02:11:30.288Z,26.32
2022-10-26T02:12:00.365Z,26.30
2022-10-26T02:12:30.440Z,26.30
2022-10-26T02:13:00.541Z,26.33
2022-10-26T02:13:30.649Z,26.27
2022-10-26T02:14:00.641Z,26.33
2022-10-26T02:14:30.648Z,26.33
2022-10-26T02:15:00.647Z,26.30
2022-10-26T02:15:30.757Z,26.32
2022-10-26T02:16:00.875Z,26.30
2022-10-26T02:16:30.992Z,26.30
2022-10-26T02:17:01.098Z,26.32
2022-10-26T02:17:31.210Z,26.30
2022-10-26T02:18:01.350Z,26.32
2022-10-26T02:18:31.436Z,26.33
2022-10-26T02:19:01.549Z,26.32
2022-10-26T02:19:31.657Z,26.32
2022-10-26T02:20:01.769Z,26.30
2022-10-26T02:20:31.886Z,26.33
2022-10-26T02:21:01.992Z,26.33
2022-10-26T02:21:32.100Z,26.32
2022-10-26T02:22:02.215Z,26.32
2022-10-26T02:22:32.329Z,26.33
2022-10-26T02:23:02.441Z,26.33
2022-10-26T02:23:32.551Z,26.32
2022-10-26T02:24:02.726Z,26.33
2022-10-26T02:24:32.706Z,26.32
2022-10-26T02:25:02.825Z,26.30
2022-10-26T02:25:32.939Z,26.33
2022-10-26T02:26:03.053Z,26.33
2022-10-26T02:26:33.165Z,26.32
2022-10-26T02:27:03.279Z,26.34
2022-10-26T02:27:33.390Z,26.33
2022-10-26T02:28:03.509Z,26.36
2022-10-26T02:28:33.499Z,26.33
2022-10-26T02:29:03.608Z,26.33
2022-10-26T02:29:33.716Z,26.34
2022-10-26T02:30:03.831Z,26.32
2022-10-26T02:30:33.945Z,26.32
2022-10-26T02:31:04.074Z,26.32
2022-10-26T02:31:34.061Z,26.33
2022-10-26T02:32:04.178Z,26.34
2022-10-26T02:32:34.286Z,26.34
2022-10-26T02:33:04.422Z,26.34
2022-10-26T02:33:34.509Z,26.33
2022-10-26T02:34:04.622Z,26.32
2022-10-26T02:34:34.734Z,26.33
2022-10-26T02:35:04.842Z,26.30
2022-10-26T02:35:34.958Z,26.32
2022-10-26T02:36:05.084Z,26.33
2022-10-26T02:36:35.065Z,26.34
2022-10-26T02:37:05.181Z,26.32
2022-10-26T02:37:35.296Z,26.33
2022-10-26T02:38:05.412Z,26.33
2022-10-26T02:38:35.404Z,26.32
2022-10-26T02:39:05.517Z,26.32
2022-10-26T02:39:35.627Z,26.34
2022-10-26T02:40:05.741Z,26.33
2022-10-26T02:40:35.847Z,26.34
2022-10-26T02:41:05.965Z,26.33
2022-10-26T02:41:36.081Z,26.34
2022-10-26T02:42:06.192Z,26.33
2022-10-26T02:42:36.303Z,26.33
2022-10-26T02:43:06.420Z,26.33
2022-10-26T02:43:36.532Z,26.33
2022-10-26T02:44:06.646Z,26.33
2022-10-26T02:44:36.759Z,26.33
2022-10-26T02:45:06.869Z,26.34
2022-10-26T02:45:36.997Z,26.34
2022-10-26T02:46:07.108Z,26.34
2022-10-26T02:46:37.218Z,26.34
2022-10-26T02:47:07.329Z,26.32
2022-10-26T02:47:37.440Z,26.33
2022-10-26T02:48:07.580Z,26.33
2022-10-26T02:48:37.672Z,26.33
2022-10-26T02:49:07.790Z,26.34
2022-10-26T02:49:37.896Z,26.33
2022-10-26T02:50:08.003Z,26.29
2022-10-26T02:50:38.126Z,26.33
2022-10-26T02:51:08.109Z,26.33
2022-10-26T02:51:38.269Z,26.34
2022-10-26T02:52:08.241Z,26.32
2022-10-26T02:52:38.351Z,26.32
2022-10-26T02:53:08.470Z,26.32
2022-10-26T02:53:38.608Z,26.32
2022-10-26T02:54:08.595Z,26.30
2022-10-26T02:54:38.709Z,26.36
2022-10-26T02:55:08.828Z,26.32
2022-10-26T02:55:38.952Z,26.33
2022-10-26T02:56:08.940Z,26.30
2022-10-26T02:56:39.049Z,26.33
2022-10-26T02:57:09.160Z,26.30
2022-10-26T02:57:39.272Z,26.32
2022-10-26T02:58:09.384Z,26.32
2022-10-26T02:58:39.499Z,26.33
2022-10-26T02:59:09.611Z,26.30
2022-10-26T02:59:39.723Z,26.32
2022-10-26T03:00:39.911Z,26.30
2022-10-26T03:01:10.145Z,26.32
2022-10-26T03:01:40.069Z,26.30
2022-10-26T03:02:10.076Z,26.33
2022-10-26T03:02:40.903Z,26.30
2022-10-26T03:03:10.299Z,26.30
2022-10-26T03:03:40.452Z,26.30
2022-10-26T03:04:10.508Z,26.32
2022-10-26T03:05:19.468Z,26.27
2022-10-26T03:05:49.539Z,26.29
2022-10-26T03:06:19.612Z,26.27
2022-10-26T03:06:49.684Z,26.29
2022-10-26T03:07:19.758Z,26.29
2022-10-26T03:07:49.836Z,26.27
2022-10-26T03:08:19.996Z,26.26
2022-10-26T03:08:49.940Z,26.27
2022-10-26T03:09:21.146Z,26.27
2022-10-26T03:09:50.011Z,26.24
2022-10-26T03:10:20.086Z,26.24
2022-10-26T03:10:50.158Z,26.27
2022-10-26T03:11:20.232Z,26.29
2022-10-26T03:11:50.306Z,26.24
2022-10-26T03:12:20.387Z,26.24
2022-10-26T03:12:50.975Z,26.27
2022-10-26T03:13:20.467Z,26.26
2022-10-26T03:13:50.538Z,26.26
2022-10-26T03:14:20.614Z,26.26
2022-10-26T03:14:50.695Z,26.27
2022-10-26T03:15:20.827Z,26.26
2022-10-26T03:15:50.813Z,26.26
2022-10-26T03:16:20.928Z,26.26
2022-10-26T03:17:21.123Z,26.26
2022-10-26T03:17:51.721Z,26.29
2022-10-26T03:18:21.305Z,26.27
2022-10-26T03:18:51.398Z,26.26
2022-10-26T03:19:21.502Z,26.26
2022-10-26T03:19:51.619Z,26.29
2022-10-26T03:20:21.743Z,26.27
2022-10-26T03:20:51.729Z,26.26
2022-10-26T03:21:21.843Z,26.27
2022-10-26T03:21:51.951Z,26.30
2022-10-26T03:22:22.065Z,26.27
2022-10-26T03:22:52.058Z,26.26
2022-10-26T03:23:22.168Z,26.27
2022-10-26T03:23:52.284Z,26.27
2022-10-26T03:24:22.399Z,26.27
2022-10-26T03:24:52.507Z,26.26
2022-10-26T03:25:22.636Z,26.27
2022-10-26T03:25:52.620Z,26.29
2022-10-26T03:26:22.731Z,26.29
2022-10-26T03:26:52.844Z,26.29
2022-10-26T03:27:22.963Z,26.26
2022-10-26T03:27:53.071Z,26.30
2022-10-26T03:28:23.191Z,26.26
2022-10-26T03:28:53.299Z,26.27
2022-10-26T03:29:23.416Z,26.27
2022-10-26T03:29:53.527Z,26.27
2022-10-26T03:30:23.640Z,26.29
2022-10-26T03:30:53.756Z,26.27
2022-10-26T03:31:23.870Z,26.27
2022-10-26T03:31:53.981Z,26.27
2022-10-26T03:32:24.097Z,26.27
2022-10-26T03:32:54.205Z,26.27
2022-10-26T03:33:27.087Z,26.29
2022-10-26T03:33:54.385Z,26.27
2022-10-26T03:34:24.493Z,26.27
2022-10-26T03:34:54.608Z,26.27
2022-10-26T03:35:24.723Z,26.26
2022-10-26T03:35:54.830Z,26.26
2022-10-26T03:36:24.944Z,26.26
2022-10-26T03:36:55.057Z,26.26
2022-10-26T03:37:25.171Z,26.27
2022-10-26T03:37:55.284Z,26.27
2022-10-26T03:38:25.400Z,26.26
2022-10-26T03:38:55.512Z,26.30
2022-10-26T03:39:25.628Z,26.26
2022-10-26T03:39:55.746Z,26.29
2022-10-26T03:40:25.868Z,26.26
2022-10-26T03:40:55.855Z,26.29
2022-10-26T03:41:25.968Z,26.27
2022-10-26T03:41:56.097Z,26.27
2022-10-26T03:42:26.193Z,26.26
2022-10-26T03:42:56.302Z,26.26
2022-10-26T03:43:26.424Z,26.23
2022-10-26T03:43:56.531Z,26.23
2022-10-26T03:44:26.648Z,26.22
2022-10-26T03:44:56.760Z,26.17
2022-10-26T03:45:26.870Z,26.19
2022-10-26T03:45:56.983Z,26.17
2022-10-26T03:46:27.098Z,26.19
2022-10-26T03:46:57.206Z,26.19
2022-10-26T03:47:27.318Z,26.19
2022-10-26T03:47:57.426Z,26.19
2022-10-26T03:48:27.572Z,26.22
2022-10-26T03:48:57.538Z,26.20
2022-10-26T03:49:27.648Z,26.22
2022-10-26T03:49:57.804Z,26.23
2022-10-26T03:50:27.849Z,26.23
2022-10-26T03:50:57.829Z,26.23
2022-10-26T03:51:27.944Z,26.24
2022-10-26T03:51:58.057Z,26.24
2022-10-26T03:52:28.169Z,26.27
2022-10-26T03:52:58.284Z,26.26
2022-10-26T03:53:28.401Z,26.26
2022-10-26T03:53:58.564Z,26.27
2022-10-26T03:54:28.600Z,26.29
2022-10-26T03:54:58.706Z,26.30
2022-10-26T03:55:28.825Z,26.30
2022-10-26T03:55:58.811Z,26.29
2022-10-26T03:56:28.923Z,26.30
2022-10-26T03:56:59.030Z,26.32
2022-10-26T03:57:29.142Z,26.33
2022-10-26T03:57:59.248Z,26.33
2022-10-26T03:58:29.364Z,26.30
2022-10-26T03:58:59.477Z,26.32
2022-10-26T03:59:29.584Z,26.34
2022-10-26T03:59:59.696Z,26.33
2022-10-26T04:00:29.815Z,26.34
2022-10-26T04:00:59.797Z,26.34
2022-10-26T04:01:29.950Z,26.36
2022-10-26T04:02:00.097Z,26.34
2022-10-26T04:02:30.116Z,26.37
2022-10-26T04:03:00.224Z,26.36
2022-10-26T04:03:30.359Z,26.40
2022-10-26T04:04:00.496Z,26.42
2022-10-26T04:04:30.669Z,26.42
2022-10-26T04:05:00.549Z,26.42
2022-10-26T04:05:30.624Z,26.40
2022-10-26T04:06:00.699Z,26.43
2022-10-26T04:06:30.773Z,26.42
2022-10-26T04:07:00.844Z,26.46
2022-10-26T04:07:30.918Z,26.46
2022-10-26T04:08:01.005Z,26.47
2022-10-26T04:08:31.065Z,26.46
2022-10-26T04:09:01.138Z,26.47
2022-10-26T04:09:31.216Z,26.47
2022-10-26T04:10:01.290Z,26.51
2022-10-26T04:10:31.374Z,26.50
2022-10-26T04:11:03.861Z,26.50
2022-10-26T04:11:31.567Z,26.51
2022-10-26T04:12:01.638Z,26.48
2022-10-26T04:12:31.715Z,26.51
2022-10-26T04:13:01.788Z,26.53
2022-10-26T04:13:31.867Z,26.53
2022-10-26T04:14:01.936Z,26.51
2022-10-26T04:14:32.012Z,26.53
2022-10-26T04:15:32.172Z,26.55
2022-10-26T04:16:02.160Z,26.57
2022-10-26T04:16:33.462Z,26.48
2022-10-26T04:17:02.347Z,26.48
2022-10-26T04:17:32.460Z,26.51
2022-10-26T04:18:02.570Z,26.50
2022-10-26T04:18:32.709Z,26.51
2022-10-26T04:19:02.791Z,26.51
2022-10-26T04:19:32.907Z,26.51
2022-10-26T04:20:03.033Z,26.51
2022-10-26T04:20:33.135Z,26.51
2022-10-26T04:21:03.248Z,26.50
2022-10-26T04:21:33.362Z,26.50
2022-10-26T04:22:03.470Z,26.50
2022-10-26T04:22:33.588Z,26.50
2022-10-26T04:23:03.693Z,26.43
2022-10-26T04:23:33.807Z,26.46
2022-10-26T04:24:03.922Z,26.44
2022-10-26T04:24:34.030Z,26.46
2022-10-26T04:25:04.171Z,26.47
2022-10-26T04:25:34.176Z,26.48
2022-10-26T04:26:04.278Z,26.48
2022-10-26T04:26:34.391Z,26.51
2022-10-26T04:27:04.502Z,26.50
2022-10-26T04:27:34.614Z,26.53
2022-10-26T04:28:04.726Z,26.53
2022-10-26T04:28:34.837Z,26.54
2022-10-26T04:29:04.949Z,26.54
2022-10-26T04:29:35.093Z,26.54
2022-10-26T04:30:05.139Z,26.57
2022-10-26T04:30:35.190Z,26.55
2022-10-26T04:31:05.203Z,26.55
2022-10-26T04:31:35.355Z,26.54
2022-10-26T04:32:05.336Z,26.57
2022-10-26T04:32:35.453Z,26.57
2022-10-26T04:33:05.440Z,26.60
2022-10-26T04:33:35.573Z,26.57
2022-10-26T04:34:05.666Z,26.63
2022-10-26T04:34:35.783Z,26.60
2022-10-26T04:35:05.904Z,26.60
2022-10-26T04:35:35.896Z,26.61
2022-10-26T04:36:06.006Z,26.60
2022-10-26T04:36:36.120Z,26.61
2022-10-26T04:37:06.237Z,26.60
2022-10-26T04:37:36.347Z,26.61
2022-10-26T04:38:06.471Z,26.63
2022-10-26T04:38:36.460Z,26.63
2022-10-26T04:39:06.569Z,26.63
2022-10-26T04:39:36.688Z,26.63
2022-10-26T04:40:36.874Z,26.63
2022-10-26T04:41:06.985Z,26.63
2022-10-26T04:41:37.093Z,26.63
2022-10-26T04:42:07.205Z,26.65
2022-10-26T04:42:37.314Z,26.65
2022-10-26T04:43:07.423Z,26.64
2022-10-26T04:43:37.541Z,26.57
2022-10-26T04:44:07.649Z,26.61
2022-10-26T04:44:37.764Z,26.58
2022-10-26T04:45:07.895Z,26.57
2022-10-26T04:45:37.878Z,26.58
2022-10-26T04:46:07.990Z,26.58
2022-10-26T04:46:38.101Z,26.58
2022-10-26T04:47:08.211Z,26.61
2022-10-26T04:47:38.327Z,26.55
2022-10-26T04:48:08.443Z,26.58
2022-10-26T04:48:38.577Z,26.55
2022-10-26T04:49:08.672Z,26.58
2022-10-26T04:49:38.778Z,26.60
2022-10-26T04:50:08.914Z,26.58
2022-10-26T04:50:38.898Z,26.61
2022-10-26T04:51:09.005Z,26.63
2022-10-26T04:51:39.119Z,26.58
2022-10-26T04:52:09.228Z,26.61
2022-10-26T04:52:39.342Z,26.61
2022-10-26T04:53:09.462Z,26.63
2022-10-26T04:53:39.574Z,26.63
2022-10-26T04:54:09.719Z,26.61
2022-10-26T04:54:39.685Z,26.63
2022-10-26T04:55:09.803Z,26.64
2022-10-26T04:55:39.912Z,26.64
2022-10-26T04:56:10.020Z,26.63
2022-10-26T04:56:40.333Z,26.65
2022-10-26T04:57:10.213Z,26.65
2022-10-26T04:57:40.321Z,26.67
2022-10-26T04:58:10.448Z,26.65
2022-10-26T04:58:40.431Z,26.65
2022-10-26T04:59:10.549Z,26.65
2022-10-26T04:59:40.538Z,26.67
2022-10-26T05:00:10.652Z,26.67
2022-10-26T05:00:40.642Z,26.65
2022-10-26T05:01:10.915Z,26.57
2022-10-26T05:01:40.932Z,26.58
2022-10-26T05:02:11.109Z,26.55
2022-10-26T05:02:40.906Z,26.58
2022-10-26T05:03:11.022Z,26.57
2022-10-26T05:03:41.160Z,26.57
2022-10-26T05:04:11.254Z,26.57
2022-10-26T05:04:41.363Z,26.57
2022-10-26T05:05:14.310Z,26.60
2022-10-26T05:05:41.542Z,26.58
2022-10-26T05:06:11.619Z,26.55
2022-10-26T05:06:41.690Z,26.46
2022-10-26T05:07:11.771Z,26.46
2022-10-26T05:07:41.844Z,26.46
2022-10-26T05:08:11.917Z,26.46
2022-10-26T05:08:41.991Z,26.46
2022-10-26T05:09:12.064Z,26.44
2022-10-26T05:09:42.135Z,26.46
2022-10-26T05:10:12.424Z,26.47
2022-10-26T05:10:42.244Z,26.47
2022-10-26T05:11:12.327Z,26.50
2022-10-26T05:11:42.401Z,26.50
2022-10-26T05:12:12.480Z,26.51
2022-10-26T05:12:42.553Z,26.54
2022-10-26T05:13:12.627Z,26.57
2022-10-26T05:13:42.701Z,26.58
2022-10-26T05:14:12.776Z,26.63
2022-10-26T05:14:42.870Z,26.61
2022-10-26T05:15:12.861Z,26.64
2022-10-26T05:15:42.975Z,26.67
2022-10-26T05:16:13.087Z,26.68
2022-10-26T05:16:43.203Z,26.70
2022-10-26T05:17:13.320Z,26.73
2022-10-26T05:17:43.321Z,26.74
2022-10-26T05:18:13.429Z,26.74
2022-10-26T05:18:43.571Z,26.75
2022-10-26T05:19:13.660Z,26.78
2022-10-26T05:19:43.769Z,26.80
2022-10-26T05:20:13.904Z,26.84
2022-10-26T05:20:43.906Z,26.84
2022-10-26T05:21:14.013Z,26.85
2022-10-26T05:22:14.188Z,26.92
2022-10-26T05:22:44.329Z,26.92
2022-10-26T05:23:14.308Z,26.92
2022-10-26T05:23:44.423Z,26.95
2022-10-26T05:24:14.538Z,26.97
2022-10-26T05:24:44.650Z,26.98
2022-10-26T05:25:14.762Z,26.99
2022-10-26T05:25:44.872Z,27.01
2022-10-26T05:26:14.987Z,27.03
2022-10-26T05:26:45.100Z,27.05
2022-10-26T05:27:15.213Z,27.05
2022-10-26T05:27:45.349Z,27.09
2022-10-26T05:28:15.331Z,27.09
2022-10-26T05:28:45.442Z,27.11
2022-10-26T05:29:15.554Z,27.12
2022-10-26T05:29:45.666Z,27.13
2022-10-26T05:30:15.783Z,27.13
2022-10-26T05:30:45.890Z,27.16
2022-10-26T05:31:16.007Z,27.16
2022-10-26T05:31:46.115Z,27.19
2022-10-26T05:32:16.226Z,27.18
2022-10-26T05:32:46.589Z,27.19
2022-10-26T05:33:16.440Z,27.23
2022-10-26T05:33:46.576Z,27.25
2022-10-26T05:34:16.666Z,27.23
2022-10-26T05:34:46.774Z,27.25
2022-10-26T05:35:16.894Z,27.26
2022-10-26T05:35:47.002Z,27.28
2022-10-26T05:36:17.114Z,27.26
2022-10-26T05:36:47.237Z,27.30
2022-10-26T05:37:17.247Z,27.30
2022-10-26T05:37:47.265Z,27.30
2022-10-26T05:38:17.347Z,27.29
2022-10-26T05:38:47.370Z,27.30
2022-10-26T05:39:17.359Z,27.32
2022-10-26T05:39:47.495Z,27.32
2022-10-26T05:40:17.515Z,27.32
2022-10-26T05:40:47.626Z,27.30
2022-10-26T05:41:17.734Z,27.33
2022-10-26T05:41:47.848Z,27.33
2022-10-26T05:42:17.961Z,27.34
2022-10-26T05:42:48.439Z,27.38
2022-10-26T05:43:18.108Z,27.36
2022-10-26T05:43:48.213Z,27.39
2022-10-26T05:44:18.324Z,27.39
2022-10-26T05:44:48.433Z,27.40
2022-10-26T05:45:18.547Z,27.39
2022-10-26T05:45:48.693Z,27.39
2022-10-26T05:46:18.678Z,27.40
2022-10-26T05:47:18.859Z,27.43
2022-10-26T05:47:49.409Z,27.46
2022-10-26T05:48:18.974Z,27.43
2022-10-26T05:48:48.987Z,27.46
2022-10-26T05:49:19.075Z,27.45
2022-10-26T05:49:49.188Z,27.46
2022-10-26T05:50:19.299Z,27.43
2022-10-26T05:50:49.408Z,27.43
2022-10-26T05:51:19.522Z,27.48
2022-10-26T05:51:49.629Z,27.43
2022-10-26T05:52:19.741Z,27.42
2022-10-26T05:52:49.856Z,27.43
2022-10-26T05:53:19.972Z,27.40
2022-10-26T05:53:50.076Z,27.39
2022-10-26T05:54:20.182Z,27.38
2022-10-26T05:54:50.289Z,27.33
2022-10-26T05:55:20.404Z,27.30
2022-10-26T05:55:50.508Z,27.32
2022-10-26T05:56:20.621Z,27.32
2022-10-26T05:56:50.737Z,27.29
2022-10-26T05:57:20.845Z,27.30
2022-10-26T05:57:51.270Z,27.30
2022-10-26T05:58:21.079Z,27.32
2022-10-26T05:58:51.073Z,27.30
2022-10-26T05:59:21.190Z,27.28
2022-10-26T05:59:51.298Z,27.30
2022-10-26T06:00:21.411Z,27.29
2022-10-26T06:00:51.528Z,27.30
2022-10-26T06:01:21.744Z,27.29
2022-10-26T06:01:51.879Z,27.30
2022-10-26T06:02:22.026Z,27.29
2022-10-26T06:02:51.919Z,27.29
2022-10-26T06:03:21.966Z,27.29
2022-10-26T06:03:51.959Z,27.26
2022-10-26T06:04:22.058Z,27.30
2022-10-26T06:04:52.158Z,27.28
2022-10-26T06:05:22.231Z,27.29
2022-10-26T06:05:52.306Z,27.28
2022-10-26T06:06:22.373Z,27.28
2022-10-26T06:06:52.448Z,27.30
2022-10-26T06:07:22.523Z,27.30
2022-10-26T06:07:52.684Z,27.29
2022-10-26T06:08:22.599Z,27.30
2022-10-26T06:08:52.671Z,27.30
2022-10-26T06:09:22.749Z,27.30
2022-10-26T06:09:52.818Z,27.29
2022-10-26T06:10:22.890Z,27.32
2022-10-26T06:10:52.964Z,27.29
2022-10-26T06:11:23.036Z,27.29
2022-10-26T06:11:53.112Z,27.30
2022-10-26T06:12:23.181Z,27.30
2022-10-26T06:12:53.269Z,27.29
2022-10-26T06:13:23.351Z,27.32
2022-10-26T06:13:53.414Z,27.26
2022-10-26T06:14:23.484Z,27.32
2022-10-26T06:14:53.566Z,27.33
2022-10-26T06:15:23.673Z,27.30
2022-10-26T06:15:53.784Z,27.32
2022-10-26T06:16:23.896Z,27.33
2022-10-26T06:16:54.003Z,27.32
2022-10-26T06:17:24.120Z,27.33
2022-10-26T06:17:54.225Z,27.30
2022-10-26T06:18:24.344Z,27.34
2022-10-26T06:18:57.103Z,27.36
2022-10-26T06:19:24.602Z,27.34
2022-10-26T06:19:54.706Z,27.34
2022-10-26T06:20:24.811Z,27.33
2022-10-26T06:20:54.919Z,27.33
2022-10-26T06:21:25.037Z,27.33
2022-10-26T06:21:55.147Z,27.32
2022-10-26T06:22:25.258Z,27.34
2022-10-26T06:22:55.370Z,27.36
2022-10-26T06:23:25.480Z,27.38
2022-10-26T06:23:55.590Z,27.39
2022-10-26T06:24:25.742Z,27.36
2022-10-26T06:24:55.815Z,27.36
2022-10-26T06:25:25.927Z,27.38
2022-10-26T06:25:56.043Z,27.38
2022-10-26T06:26:26.156Z,27.38
2022-10-26T06:26:56.268Z,27.39
2022-10-26T06:27:26.380Z,27.39
2022-10-26T06:27:56.504Z,27.38
2022-10-26T06:28:26.550Z,27.38
2022-10-26T06:28:56.523Z,27.38
2022-10-26T06:29:26.638Z,27.38
2022-10-26T06:29:56.752Z,27.38
2022-10-26T06:30:26.981Z,27.38
2022-10-26T06:30:56.972Z,27.39
2022-10-26T06:31:27.090Z,27.42